Time;durP1;ratioP1;P1;durP2;ratioP2;P2;SDS_P1;SDS_P2;PMS_P1;PMS_P2;Temp;Humidity;BMP_temperature;BMP_pressure;BME280_temperature;BME280_humidity;BME280_pressure;Samples;Min_cycle;Max_cycle;Signal;HPM_P1;HPM_P2
2023/01/02 00:02:15;;;;;;;;;;;;;;;13.02;71.42;100873.75;5015358;28;20349;-74
2023/01/02 00:04:40;;;;;;;;;;;;;;;13.02;71.31;100868.31;5015039;28;19975;-74
2023/01/02 00:07:05;;;;;;;;;;;;;;;13.02;71.31;100864.81;5015348;28;19924;-74
2023/01/02 00:09:30;;;;;;;;;;;;;;;13.01;71.29;100858.56;5014940;28;20011;-74
2023/01/02 00:11:56;;;;;;;;;;;;;;;13.01;71.21;100861.28;5015220;28;20339;-76
2023/01/02 00:14:21;;;;;;;;;;;;;;;13.02;71.42;100862.09;5015126;28;19913;-75
2023/01/02 00:16:46;;;;;;;;;;;;;;;13.02;71.43;100851.25;5014531;28;19952;-76
2023/01/02 00:19:11;;;;;;;;;;;;;;;13.01;71.09;100853.16;5015100;28;19918;-75
2023/01/02 00:21:37;;;;;;;;;;;;;;;13.01;71.48;100847.72;5013892;28;19924;-75
2023/01/02 00:24:02;;;;;;;;;;;;;;;13.01;71.21;100853.16;5014992;28;19918;-75
2023/01/02 00:26:28;;;;;;;;;;;;;;;13.02;71.29;100848.53;5015270;28;19929;-75
2023/01/02 00:28:53;;;;;;;;;;;;;;;13.01;71.54;100845.00;5015530;28;19983;-75
2023/01/02 00:31:19;;;;;;;;;;;;;;;13.01;71.34;100849.63;5014877;28;20361;-75
2023/01/02 00:33:44;;;;;;;;;;;;;;;13.01;71.24;100842.28;5015322;28;19929;-74
2023/01/02 00:36:10;;;;;;;;;;;;;;;13.00;71.21;100837.94;5014918;28;19996;-74
2023/01/02 00:38:36;;;;;;;;;;;;;;;13.01;71.43;100845.00;5014837;28;19967;-75
2023/01/02 00:41:01;;;;;;;;;;;;;;;12.99;71.13;100834.41;5014741;28;19914;-74
2023/01/02 00:43:27;;;;;;;;;;;;;;;13.00;71.30;100837.94;5014685;28;19963;-75
2023/01/02 00:45:52;;;;;;;;;;;;;;;13.01;71.26;100830.63;5014406;28;20008;-75
2023/01/02 00:48:18;;;;;;;;;;;;;;;13.01;71.24;100830.63;5014655;28;19956;-75
2023/01/02 00:50:43;;;;;;;;;;;;;;;13.00;71.41;100829.78;5014898;28;19976;-74
2023/01/02 00:53:09;;;;;;;;;;;;;;;12.99;71.40;100828.97;5014591;28;19913;-74
2023/01/02 00:55:34;;;;;;;;;;;;;;;12.99;71.50;100815.44;5014499;28;19920;-74
2023/01/02 00:57:59;;;;;;;;;;;;;;;12.99;71.30;100818.13;5014557;28;20487;-75
2023/01/02 01:00:25;;;;;;;;;;;;;;;12.99;71.52;100812.72;5014861;28;19992;-75
2023/01/02 01:02:53;;;;;;;;;;;;;;;12.99;71.33;100806.47;5014244;28;19925;-75
2023/01/02 01:05:18;;;;;;;;;;;;;;;12.98;70.96;100811.09;5014296;28;19913;-75
2023/01/02 01:07:43;;;;;;;;;;;;;;;12.98;71.26;100813.81;5014357;28;19925;-75
2023/01/02 01:10:09;;;;;;;;;;;;;;;12.97;71.20;100814.84;5014728;28;19924;-75
2023/01/02 01:12:34;;;;;;;;;;;;;;;12.99;71.16;100817.31;5014449;28;19920;-75
2023/01/02 01:14:59;;;;;;;;;;;;;;;12.98;71.27;100810.28;5014528;28;19919;-75
2023/01/02 01:17:24;;;;;;;;;;;;;;;12.98;71.12;100799.44;5014171;28;19953;-75
2023/01/02 01:19:50;;;;;;;;;;;;;;;12.98;71.11;100807.56;5013903;28;19917;-76
2023/01/02 01:22:15;;;;;;;;;;;;;;;12.98;71.03;100802.16;5014232;28;20285;-74
2023/01/02 01:24:40;;;;;;;;;;;;;;;12.98;71.01;100811.09;5014145;28;19917;-75
2023/01/02 01:27:05;;;;;;;;;;;;;;;12.98;70.97;100810.28;5012836;28;19918;-74
2023/01/02 01:29:31;;;;;;;;;;;;;;;12.98;71.04;100802.16;5013921;28;19924;-75
2023/01/02 01:31:56;;;;;;;;;;;;;;;12.97;71.18;100804.00;5014165;28;19914;-75
2023/01/02 01:34:21;;;;;;;;;;;;;;;12.97;71.21;100809.44;5014113;28;20324;-74
2023/01/02 01:36:46;;;;;;;;;;;;;;;12.97;71.40;100804.00;5014106;28;19921;-75
2023/01/02 01:39:11;;;;;;;;;;;;;;;12.98;71.42;100810.28;5014187;28;19924;-74
2023/01/02 01:41:37;;;;;;;;;;;;;;;12.98;71.16;100807.56;5014298;28;19913;-75
2023/01/02 01:44:22;;;;;;;;;;;;;;;12.97;71.00;100817.56;5013429;28;19917;-75
2023/01/02 01:46:47;;;;;;;;;;;;;;;12.97;70.97;100824.91;5013784;28;19959;-75
2023/01/02 01:49:15;;;;;;;;;;;;;;;12.97;71.24;100827.59;5020182;28;19917;-75
2023/01/02 01:51:48;;;;;;;;;;;;;;;12.97;71.16;100827.59;5020554;28;19960;-75
2023/01/02 01:54:16;;;;;;;;;;;;;;;12.97;71.33;100824.91;5021149;28;19913;-75
2023/01/02 01:56:44;;;;;;;;;;;;;;;12.98;71.13;100829.25;5019886;28;20358;-75
2023/01/02 01:59:12;;;;;;;;;;;;;;;12.97;71.10;100825.72;5020164;28;19922;-74
2023/01/02 02:01:39;;;;;;;;;;;;;;;12.97;71.23;100833.84;5020157;28;19971;-75
2023/01/02 02:04:04;;;;;;;;;;;;;;;12.97;71.02;100835.75;5020272;28;19921;-75
2023/01/02 02:06:29;;;;;;;;;;;;;;;12.97;71.03;100825.72;5020026;28;20369;-75
2023/01/02 02:09:04;;;;;;;;;;;;;;;12.97;71.29;100831.13;5020393;28;19913;-75
2023/01/02 02:11:30;;;;;;;;;;;;;;;12.98;71.28;100837.41;5020373;28;19914;-75
2023/01/02 02:13:57;;;;;;;;;;;;;;;12.98;71.21;100831.97;5020744;28;19925;-75
2023/01/02 02:16:27;;;;;;;;;;;;;;;12.98;71.18;100837.41;5020763;28;20402;-75
2023/01/02 02:18:55;;;;;;;;;;;;;;;12.98;71.39;100840.91;5020319;28;19913;-75
2023/01/02 02:21:30;;;;;;;;;;;;;;;12.99;71.47;100844.44;5018961;28;19921;-76
2023/01/02 02:24:13;;;;;;;;;;;;;;;12.98;71.26;100838.19;5020099;28;19935;-75
2023/01/02 02:26:48;;;;;;;;;;;;;;;12.99;71.32;100847.16;5020673;28;19914;-75
2023/01/02 02:29:13;;;;;;;;;;;;;;;12.98;71.22;100838.19;5020497;28;19920;-75
2023/01/02 02:32:11;;;;;;;;;;;;;;;12.99;71.54;100839.81;5020201;28;20007;-75
2023/01/02 02:34:44;;;;;;;;;;;;;;;13.01;71.70;100833.34;4986249;28;20321;-75
2023/01/02 02:37:22;;;;;;;;;;;;;;;13.00;71.53;100837.94;5020280;28;19917;-75
2023/01/02 02:39:50;;;;;;;;;;;;;;;12.99;71.49;100839.03;5020683;28;19960;-76
2023/01/02 02:42:30;;;;;;;;;;;;;;;13.01;71.65;100836.88;5020075;28;20382;-75
2023/01/02 02:45:11;;;;;;;;;;;;;;;13.00;71.48;100829.78;5020157;28;19913;-75
2023/01/02 02:47:48;;;;;;;;;;;;;;;13.01;71.61;100820.59;5020125;28;19936;-75
2023/01/02 02:50:21;;;;;;;;;;;;;;;13.02;71.61;100832.25;5020113;28;19961;-75
2023/01/02 02:52:50;;;;;;;;;;;;;;;13.02;71.52;100819.53;5020034;28;19913;-74
2023/01/02 02:55:19;;;;;;;;;;;;;;;13.03;71.59;100823.03;5020539;28;20518;-75
2023/01/02 02:57:45;;;;;;;;;;;;;;;13.03;71.33;100829.31;5019966;28;19910;-75
2023/01/02 03:00:15;;;;;;;;;;;;;;;13.04;71.87;100828.22;5016681;28;19959;-74
2023/01/02 03:02:40;;;;;;;;;;;;;;;13.04;71.43;100822.78;5015378;28;20299;-74
2023/01/02 03:05:08;;;;;;;;;;;;;;;13.05;71.18;100820.91;5016797;28;19914;-75
2023/01/02 03:07:54;;;;;;;;;;;;;;;13.05;71.51;100829.03;5016766;28;20385;-75
2023/01/02 03:10:29;;;;;;;;;;;;;;;13.06;71.37;100827.97;5016563;28;19932;-75
2023/01/02 03:13:06;;;;;;;;;;;;;;;13.05;71.12;100816.28;5015639;28;20004;-75
2023/01/02 03:15:34;;;;;;;;;;;;;;;13.04;71.46;100822.78;5017132;28;19914;-76
2023/01/02 03:18:18;;;;;;;;;;;;;;;13.06;71.34;100825.25;5016579;28;19920;-75
2023/01/02 03:20:46;;;;;;;;;;;;;;;13.06;71.33;100823.38;5016541;28;19913;-75
2023/01/02 03:23:15;;;;;;;;;;;;;;;13.07;71.16;100825.00;5016355;28;19967;-75
2023/01/02 03:25:41;;;;;;;;;;;;;;;13.06;71.41;100814.41;5016906;28;20001;-76
2023/01/02 03:28:08;;;;;;;;;;;;;;;13.08;71.28;100823.94;5016407;28;20019;-74
2023/01/02 03:30:35;;;;;;;;;;;;;;;13.08;71.47;100825.81;5016366;28;19957;-74
2023/01/02 03:33:05;;;;;;;;;;;;;;;13.10;71.75;100829.06;5016286;28;19913;-75
2023/01/02 03:35:33;;;;;;;;;;;;;;;13.10;71.63;100829.06;5016723;28;19920;-75
2023/01/02 03:38:01;;;;;;;;;;;;;;;13.11;71.39;100833.44;5016252;28;20366;-74
2023/01/02 03:40:33;;;;;;;;;;;;;;;13.11;71.13;100847.81;5015889;28;19913;-75
2023/01/02 03:43:00;;;;;;;;;;;;;;;13.11;71.50;100844.28;5015627;28;19921;-75
2023/01/02 03:45:29;;;;;;;;;;;;;;;13.11;71.52;100839.69;5015706;28;19914;-75
2023/01/02 03:48:01;;;;;;;;;;;;;;;13.12;71.48;100844.03;5016525;28;19960;-74
2023/01/02 03:50:30;;;;;;;;;;;;;;;13.13;71.48;100855.72;5015956;28;20362;-75
2023/01/02 03:52:55;;;;;;;;;;;;;;;13.12;71.66;100852.16;5015926;28;20277;-75
2023/01/02 03:55:22;;;;;;;;;;;;;;;13.12;71.55;100854.06;5015896;28;19914;-75
2023/01/02 03:57:47;;;;;;;;;;;;;;;13.13;71.56;100866.56;5015751;28;20097;-75
2023/01/02 04:00:15;;;;;;;;;;;;;;;13.13;71.62;100851.09;5015307;28;19914;-75
2023/01/02 04:02:48;;;;;;;;;;;;;;;13.15;71.73;100848.09;5015674;28;19914;-74
2023/01/02 04:05:18;;;;;;;;;;;;;;;13.13;71.31;100851.09;5015747;28;19919;-75
2023/01/02 04:07:50;;;;;;;;;;;;;;;13.14;71.64;100860.84;5014877;28;20270;-74
2023/01/02 04:10:16;;;;;;;;;;;;;;;13.14;71.62;100860.84;5015905;28;19936;-75
2023/01/02 04:12:44;;;;;;;;;;;;;;;13.15;71.60;100857.09;5016042;28;20338;-75
2023/01/02 04:15:13;;;;;;;;;;;;;;;13.15;71.73;100870.66;5015575;28;19913;-75
2023/01/02 04:17:53;;;;;;;;;;;;;;;13.16;71.69;100871.47;5015461;28;19981;-75
2023/01/02 04:20:24;;;;;;;;;;;;;;;13.16;71.69;100877.69;5015111;28;20283;-74
2023/01/02 04:22:52;;;;;;;;;;;;;;;13.17;71.99;100878.50;5015252;28;19913;-74
2023/01/02 04:25:17;;;;;;;;;;;;;;;13.16;71.66;100877.69;5015426;28;19913;-74
2023/01/02 04:27:47;;;;;;;;;;;;;;;13.18;71.79;100885.59;5013977;28;19917;-75
2023/01/02 04:30:12;;;;;;;;;;;;;;;13.17;71.51;100879.31;5015730;28;19914;-75
2023/01/02 04:32:40;;;;;;;;;;;;;;;13.17;71.72;100882.03;5015129;28;20293;-75
2023/01/02 04:35:09;;;;;;;;;;;;;;;13.19;71.71;100879.06;5015101;28;19936;-75
2023/01/02 04:37:39;;;;;;;;;;;;;;;13.18;71.63;100880.16;5015361;28;20380;-75
2023/01/02 04:40:09;;;;;;;;;;;;;;;13.19;71.73;100879.06;5015064;28;19924;-74
2023/01/02 04:42:34;;;;;;;;;;;;;;;13.19;71.53;100887.22;5014965;28;20044;-75
2023/01/02 04:45:00;;;;;;;;;;;;;;;13.20;71.49;100888.84;5015003;28;19948;-74
2023/01/02 04:47:25;;;;;;;;;;;;;;;13.19;71.43;100877.19;5014954;28;20289;-75
2023/01/02 04:49:50;;;;;;;;;;;;;;;13.19;71.71;100884.50;5014553;28;19917;-75
2023/01/02 04:52:16;;;;;;;;;;;;;;;13.20;71.71;100886.13;5015596;28;20342;-75
2023/01/02 04:54:41;;;;;;;;;;;;;;;13.20;71.66;100891.56;5014812;28;20334;-75
2023/01/02 04:57:06;;;;;;;;;;;;;;;13.20;71.88;100900.53;5015391;28;19995;-75
2023/01/02 04:59:31;;;;;;;;;;;;;;;13.21;71.71;100890.50;5013788;28;19914;-74
2023/01/02 05:01:56;;;;;;;;;;;;;;;13.20;71.40;100897.81;5014170;28;19923;-74
2023/01/02 05:04:22;;;;;;;;;;;;;;;13.21;71.63;100902.16;5014298;28;20362;-74
2023/01/02 05:06:47;;;;;;;;;;;;;;;13.21;71.75;100904.06;5014562;28;20321;-75
2023/01/02 05:09:14;;;;;;;;;;;;;;;13.21;71.81;100904.06;5014632;28;19971;-75
2023/01/02 05:11:40;;;;;;;;;;;;;;;13.22;71.63;100902.97;5014548;28;19992;-75
2023/01/02 05:14:05;;;;;;;;;;;;;;;13.22;71.67;100905.69;5014525;28;20329;-74
2023/01/02 05:16:30;;;;;;;;;;;;;;;13.21;71.63;100907.59;5014451;28;20012;-76
2023/01/02 05:18:55;;;;;;;;;;;;;;;13.23;71.74;100906.50;5014615;28;20343;-75
2023/01/02 05:24:04;;;;;;;;;;;;;;;13.22;71.75;100911.09;5014159;28;19920;-75
2023/01/02 05:26:31;;;;;;;;;;;;;;;13.22;71.69;100911.09;5014600;28;19918;-75
2023/01/02 05:28:57;;;;;;;;;;;;;;;13.24;71.69;100916.28;5014196;28;19963;-75
2023/01/02 05:31:22;;;;;;;;;;;;;;;13.24;71.71;100921.72;5014337;28;20316;-75
2023/01/02 05:33:54;;;;;;;;;;;;;;;13.24;71.78;100927.94;5014280;28;19928;-75
2023/01/02 05:36:20;;;;;;;;;;;;;;;13.24;71.63;100924.44;5014233;28;19914;-76
2023/01/02 05:38:45;;;;;;;;;;;;;;;13.24;71.81;100935.28;5014120;28;19981;-76
2023/01/02 05:41:10;;;;;;;;;;;;;;;13.24;71.75;100938.00;5013826;28;19920;-75
2023/01/02 05:43:36;;;;;;;;;;;;;;;13.24;71.86;100949.66;5014102;28;20354;-75
2023/01/02 05:46:07;;;;;;;;;;;;;;;13.25;71.79;100951.28;5012734;28;19910;-75
2023/01/02 05:48:33;;;;;;;;;;;;;;;13.24;71.68;100952.38;5014113;28;19913;-75
2023/01/02 05:51:02;;;;;;;;;;;;;;;13.24;71.82;100943.41;5014038;28;19943;-75
2023/01/02 05:53:27;;;;;;;;;;;;;;;13.24;71.68;100952.38;5014124;28;19914;-75
2023/01/02 05:55:52;;;;;;;;;;;;;;;13.24;71.64;101000.38;5013998;28;19913;-75
2023/01/02 05:58:18;;;;;;;;;;;;;;;13.25;71.58;101021.81;5013914;28;19921;-75
2023/01/02 06:00:43;;;;;;;;;;;;;;;13.25;71.60;101040.81;5014003;28;19994;-77
2023/01/02 06:03:08;;;;;;;;;;;;;;;13.25;71.88;101043.50;5014149;28;19956;-75
2023/01/02 06:05:33;;;;;;;;;;;;;;;13.24;71.90;101044.59;5014215;28;19918;-75
2023/01/02 06:07:59;;;;;;;;;;;;;;;13.25;71.92;101054.38;5014095;28;19939;-75
2023/01/02 06:10:24;;;;;;;;;;;;;;;13.24;71.83;101057.34;5014056;28;19963;-74
2023/01/02 06:12:49;;;;;;;;;;;;;;;13.25;71.73;101061.69;5013528;28;19918;-75
2023/01/02 06:15:14;;;;;;;;;;;;;;;13.24;71.80;101074.44;5013773;28;20333;-75
2023/01/02 06:17:40;;;;;;;;;;;;;;;13.24;71.89;101082.56;5012680;28;20285;-75
2023/01/02 06:20:05;;;;;;;;;;;;;;;13.22;71.78;101090.13;5013481;28;19971;-75
2023/01/02 06:22:30;;;;;;;;;;;;;;;13.23;71.96;101093.66;5013823;28;19919;-75
2023/01/02 06:24:56;;;;;;;;;;;;;;;13.21;71.92;101091.22;5013653;28;19978;-74
2023/01/02 06:27:21;;;;;;;;;;;;;;;13.21;71.81;101097.47;5013722;28;19996;-76
2023/01/02 06:29:46;;;;;;;;;;;;;;;13.21;71.79;101102.88;5013711;28;19993;-76
2023/01/02 06:32:11;;;;;;;;;;;;;;;13.21;71.84;101099.38;5013692;28;19918;-75
2023/01/02 06:34:37;;;;;;;;;;;;;;;13.21;71.96;101104.78;5014830;28;19918;-74
2023/01/02 06:37:02;;;;;;;;;;;;;;;13.20;71.75;101114.81;5017404;28;20357;-75
2023/01/02 06:39:28;;;;;;;;;;;;;;;13.21;71.48;101112.94;5017313;28;20394;-74
2023/01/02 06:41:53;;;;;;;;;;;;;;;13.20;71.76;101116.69;5017168;28;20357;-75
2023/01/02 06:44:18;;;;;;;;;;;;;;;13.20;71.95;101130.25;5017419;28;19927;-75
2023/01/02 06:46:43;;;;;;;;;;;;;;;13.19;71.87;101134.06;5017066;28;20020;-75
2023/01/02 06:49:09;;;;;;;;;;;;;;;13.18;71.43;101151.41;5017120;28;19920;-76
2023/01/02 06:51:34;;;;;;;;;;;;;;;13.18;71.78;101141.38;5017138;28;20024;-75
2023/01/02 06:53:59;;;;;;;;;;;;;;;13.17;71.64;101147.84;5016930;28;19924;-74
2023/01/02 06:56:24;;;;;;;;;;;;;;;13.18;71.62;101151.41;5017090;28;20020;-74
2023/01/02 06:58:50;;;;;;;;;;;;;;;13.17;71.79;101158.69;5016871;28;19968;-75
2023/01/02 07:01:19;;;;;;;;;;;;;;;13.17;71.71;101168.75;5016955;28;20362;-75
2023/01/02 07:03:45;;;;;;;;;;;;;;;13.16;71.60;101180.66;5016608;28;20379;-74
2023/01/02 07:06:14;;;;;;;;;;;;;;;13.16;71.60;101186.09;5016482;28;19968;-75
2023/01/02 07:08:41;;;;;;;;;;;;;;;13.15;71.68;101181.72;5016916;28;19967;-74
2023/01/02 07:11:07;;;;;;;;;;;;;;;13.14;71.42;101196.38;5016774;28;20008;-74
2023/01/02 07:13:33;;;;;;;;;;;;;;;13.13;71.67;101200.16;5016814;28;19913;-74
2023/01/02 07:16:02;;;;;;;;;;;;;;;13.12;71.85;101212.88;5016498;28;19928;-75
2023/01/02 07:18:27;;;;;;;;;;;;;;;13.11;71.55;101216.66;5015933;28;20274;-75
2023/01/02 07:20:53;;;;;;;;;;;;;;;13.10;71.65;101225.03;5016512;28;19917;-74
2023/01/02 07:23:18;;;;;;;;;;;;;;;13.10;71.93;101231.31;5015626;28;20038;-74
2023/01/02 07:25:44;;;;;;;;;;;;;;;13.09;71.50;101237.78;5016406;28;19920;-75
2023/01/02 07:28:09;;;;;;;;;;;;;;;13.08;71.82;101243.44;5015779;28;19918;-74
2023/01/02 07:30:34;;;;;;;;;;;;;;;13.08;71.62;101249.72;5016079;28;19960;-73
2023/01/02 07:32:59;;;;;;;;;;;;;;;13.07;71.64;101253.47;5015939;28;19972;-73
2023/01/02 07:35:24;;;;;;;;;;;;;;;13.06;71.87;101259.16;5015963;28;20388;-74
2023/01/02 07:37:50;;;;;;;;;;;;;;;13.07;71.74;101266.22;5015197;28;19923;-74
2023/01/02 07:40:15;;;;;;;;;;;;;;;13.04;71.57;101272.97;5016336;28;19917;-75
2023/01/02 07:42:40;;;;;;;;;;;;;;;13.04;71.44;101278.38;5015811;28;20008;-74
2023/01/02 07:45:06;;;;;;;;;;;;;;;13.03;71.48;101284.03;5015031;28;19918;-75
2023/01/02 07:47:31;;;;;;;;;;;;;;;13.02;71.48;101288.66;5015888;28;20348;-75
2023/01/02 07:49:56;;;;;;;;;;;;;;;13.01;71.62;101295.16;5015845;28;19964;-75
2023/01/02 07:52:22;;;;;;;;;;;;;;;13.01;71.40;101302.47;5015528;28;19918;-74
2023/01/02 07:54:47;;;;;;;;;;;;;;;12.99;71.09;101310.84;5015717;28;19917;-75
2023/01/02 07:57:12;;;;;;;;;;;;;;;12.98;71.44;101314.63;5014361;28;19913;-75
2023/01/02 07:59:37;;;;;;;;;;;;;;;12.97;71.42;101329.25;5014383;28;20002;-75
2023/01/02 08:02:03;;;;;;;;;;;;;;;12.95;71.22;101331.38;5015229;28;19975;-74
2023/01/02 08:04:28;;;;;;;;;;;;;;;12.95;71.50;101340.34;5015637;28;19932;-74
2023/01/02 08:06:53;;;;;;;;;;;;;;;12.94;71.45;101349.53;5013963;28;19918;-74
2023/01/02 08:09:18;;;;;;;;;;;;;;;12.93;71.27;101350.63;5015601;28;19939;-72
2023/01/02 08:11:44;;;;;;;;;;;;;;;12.93;71.48;101366.88;5015318;28;19918;-75
2023/01/02 08:14:09;;;;;;;;;;;;;;;12.92;71.48;101376.06;5015554;28;20309;-74
2023/01/02 08:16:34;;;;;;;;;;;;;;;12.91;71.29;101362.78;5015208;28;20362;-75
2023/01/02 08:18:59;;;;;;;;;;;;;;;12.91;71.38;101366.31;5014981;28;19917;-76
2023/01/02 08:21:25;;;;;;;;;;;;;;;12.91;71.18;101373.63;4997342;28;19924;-74
2023/01/02 08:23:51;;;;;;;;;;;;;;;12.88;71.54;101372.22;5014936;28;20380;-74
2023/01/02 08:26:16;;;;;;;;;;;;;;;12.88;71.62;101371.41;5014801;28;19921;-75
2023/01/02 08:28:41;;;;;;;;;;;;;;;12.87;71.24;101375.16;5014850;28;19917;-74
2023/01/02 08:31:08;;;;;;;;;;;;;;;12.87;71.38;101377.88;5013563;28;19953;-74
2023/01/02 08:33:33;;;;;;;;;;;;;;;12.85;71.30;101388.97;5013514;28;19914;-74
2023/01/02 08:35:59;;;;;;;;;;;;;;;12.86;71.33;101401.44;5014881;28;19917;-75
2023/01/02 08:38:24;;;;;;;;;;;;;;;12.84;71.34;101400.06;5014986;28;20222;-75
2023/01/02 08:40:49;;;;;;;;;;;;;;;12.82;71.59;101403.00;5014625;28;20285;-74
2023/01/02 08:43:15;;;;;;;;;;;;;;;12.82;71.33;101404.88;5014575;28;19961;-75
2023/01/02 08:45:40;;;;;;;;;;;;;;;12.81;71.37;101406.78;5014242;28;19924;-74
2023/01/02 08:48:05;;;;;;;;;;;;;;;12.80;71.53;101413.28;5014820;28;20377;-75
2023/01/02 08:50:30;;;;;;;;;;;;;;;12.79;71.38;101417.03;5013354;28;19917;-74
2023/01/02 08:52:56;;;;;;;;;;;;;;;12.77;71.22;101417.28;5014136;28;19924;-75
2023/01/02 08:55:21;;;;;;;;;;;;;;;12.78;71.59;101415.41;5014325;28;20349;-73
2023/01/02 08:57:46;;;;;;;;;;;;;;;12.76;71.29;101425.66;5013589;28;19917;-74
2023/01/02 09:00:11;;;;;;;;;;;;;;;12.75;71.41;101424.84;5014236;28;19996;-74
2023/01/02 09:02:37;;;;;;;;;;;;;;;12.75;71.35;101437.53;5015040;28;19967;-74
2023/01/02 09:05:02;;;;;;;;;;;;;;;12.75;71.52;101440.25;5014069;28;19975;-74
2023/01/02 09:07:31;;;;;;;;;;;;;;;12.73;71.31;101440.50;5013913;28;20015;-73
2023/01/02 09:09:56;;;;;;;;;;;;;;;12.73;71.30;101442.41;5014164;28;19924;-75
2023/01/02 09:12:21;;;;;;;;;;;;;;;12.72;71.50;101446.97;5014070;28;20265;-76
2023/01/02 09:14:46;;;;;;;;;;;;;;;12.71;71.57;101448.06;5014321;28;20016;-75
2023/01/02 09:17:12;;;;;;;;;;;;;;;12.71;71.52;101452.66;5013818;28;19972;-75
2023/01/02 09:19:37;;;;;;;;;;;;;;;12.70;71.53;101467.25;5014057;28;19918;-75
2023/01/02 09:22:03;;;;;;;;;;;;;;;12.71;71.53;101479.78;5014174;28;20004;-75
2023/01/02 09:24:28;;;;;;;;;;;;;;;12.70;71.54;101478.09;5014152;28;19917;-73
2023/01/02 09:26:53;;;;;;;;;;;;;;;12.69;71.59;101473.75;5013510;28;20334;-75
2023/01/02 09:29:19;;;;;;;;;;;;;;;12.67;71.46;101482.13;5013842;28;20342;-75
2023/01/02 09:31:44;;;;;;;;;;;;;;;12.67;71.44;101482.13;5013710;28;19913;-75
2023/01/02 09:34:09;;;;;;;;;;;;;;;12.67;71.67;101478.59;5013939;28;19917;-74
2023/01/02 09:36:35;;;;;;;;;;;;;;;12.66;71.45;101485.09;5013449;28;20274;-74
2023/01/02 09:39:00;;;;;;;;;;;;;;;12.65;71.67;101488.84;5013755;28;19914;-75
2023/01/02 09:41:37;;;;;;;;;;;;;;;12.65;71.61;101491.53;5013420;28;20366;-75
2023/01/02 09:44:21;;;;;;;;;;;;;;;12.62;71.29;101508.28;5013633;28;19917;-75
2023/01/02 09:46:55;;;;;;;;;;;;;;;12.60;71.35;101504.97;5013677;28;19963;-74
2023/01/02 09:49:22;;;;;;;;;;;;;;;12.60;71.29;101513.97;5013667;28;19913;-74
2023/01/02 09:51:47;;;;;;;;;;;;;;;12.60;71.51;101511.25;5013295;28;20346;-74
2023/01/02 09:54:20;;;;;;;;;;;;;;;12.60;71.46;101513.13;5012563;28;19920;-74
2023/01/02 09:56:48;;;;;;;;;;;;;;;12.59;71.46;101514.19;5013866;28;19914;-75
2023/01/02 09:59:23;;;;;;;;;;;;;;;12.59;71.44;101519.63;5013596;28;19935;-75
2023/01/02 10:02:15;;;;;;;;;;;;;;;12.58;71.60;101517.97;5012799;28;20301;-75
2023/01/02 10:04:50;;;;;;;;;;;;;;;12.56;71.41;101508.19;5011668;28;19913;-74
2023/01/02 10:07:24;;;;;;;;;;;;;;;12.56;71.58;101510.88;5012470;28;19913;-74
2023/01/02 10:10:08;;;;;;;;;;;;;;;12.56;71.56;101518.19;5016095;28;19920;-74
2023/01/02 10:12:41;;;;;;;;;;;;;;;12.56;71.56;101516.31;5017405;28;19929;-75
2023/01/02 10:15:12;;;;;;;;;;;;;;;12.54;71.49;101513.00;5017627;28;19913;-75
2023/01/02 10:17:41;;;;;;;;;;;;;;;12.54;71.57;101515.72;5016090;28;20384;-74
2023/01/02 10:20:12;;;;;;;;;;;;;;;12.54;71.62;101518.44;5017264;28;20021;-74
2023/01/02 10:22:44;;;;;;;;;;;;;;;12.53;71.32;101521.38;5017542;28;19921;-75
2023/01/02 10:25:21;;;;;;;;;;;;;;;12.53;71.36;101535.75;5017293;28;19917;-75
2023/01/02 10:27:52;;;;;;;;;;;;;;;12.52;71.44;101544.09;5017478;28;19913;-77
2023/01/02 10:30:28;;;;;;;;;;;;;;;12.51;71.42;101548.72;5017603;28;20369;-74
2023/01/02 10:32:59;;;;;;;;;;;;;;;12.51;71.35;101548.72;5017095;28;19913;-75
2023/01/02 10:35:44;;;;;;;;;;;;;;;12.50;71.40;101548.97;5017151;28;19913;-74
2023/01/02 10:38:11;;;;;;;;;;;;;;;12.49;71.34;101555.44;5009033;28;19921;-74
2023/01/02 10:40:37;;;;;;;;;;;;;;;12.48;71.29;101545.66;5016937;28;20020;-75
2023/01/02 10:43:02;;;;;;;;;;;;;;;12.47;71.33;101547.56;5015886;28;19938;-75
2023/01/02 10:45:28;;;;;;;;;;;;;;;12.48;71.61;101542.94;5016782;28;20000;-75
2023/01/02 10:47:53;;;;;;;;;;;;;;;12.48;71.23;101546.47;5016703;28;19913;-74
2023/01/02 10:50:24;;;;;;;;;;;;;;;12.47;71.30;101552.97;5016634;28;20007;-74
2023/01/02 10:52:53;;;;;;;;;;;;;;;12.46;71.42;101556.72;5017407;28;19917;-74
2023/01/02 10:55:39;;;;;;;;;;;;;;;12.45;71.34;101565.09;5016420;28;19935;-71
2023/01/02 10:58:06;;;;;;;;;;;;;;;12.45;71.07;101567.81;5016836;28;19920;-73
2023/01/02 11:00:33;;;;;;;;;;;;;;;12.45;70.93;101567.81;5016636;28;19913;-75
2023/01/02 11:03:19;;;;;;;;;;;;;;;12.43;70.87;101578.88;5016372;28;20351;-75
2023/01/02 11:05:51;;;;;;;;;;;;;;;12.43;71.00;101575.34;5014726;28;20390;-75
2023/01/02 11:08:19;;;;;;;;;;;;;;;12.43;71.24;101572.63;5016708;28;19920;-75
2023/01/02 11:10:45;;;;;;;;;;;;;;;12.43;71.19;101569.94;5016410;28;19914;-75
2023/01/02 11:13:15;;;;;;;;;;;;;;;12.42;70.87;101570.97;5016675;28;20019;-75
2023/01/02 11:15:49;;;;;;;;;;;;;;;12.41;71.18;101572.88;5015420;28;19919;-76
2023/01/02 11:18:19;;;;;;;;;;;;;;;12.41;71.25;101569.34;5016533;28;19920;-75
2023/01/02 11:20:51;;;;;;;;;;;;;;;12.40;71.12;101563.09;5015336;28;19986;-74
2023/01/02 11:23:23;;;;;;;;;;;;;;;12.40;71.32;101579.34;5016147;28;19914;-74
2023/01/02 11:25:50;;;;;;;;;;;;;;;12.40;71.26;101582.06;5016779;28;20305;-74
2023/01/02 11:28:21;;;;;;;;;;;;;;;12.40;71.24;101582.06;5016232;28;19945;-74
2023/01/02 11:30:49;;;;;;;;;;;;;;;12.38;71.22;101586.06;5016745;28;19920;-75
2023/01/02 11:33:23;;;;;;;;;;;;;;;12.37;71.06;101592.53;5016036;28;19928;-73
2023/01/02 11:36:03;;;;;;;;;;;;;;;12.37;71.26;101595.22;5015879;28;19917;-78
2023/01/02 11:38:48;;;;;;;;;;;;;;;12.37;71.18;101590.63;5015867;28;19914;-76
2023/01/02 11:44:44;;;;;;;;;;;;;;;12.36;71.26;101575.44;5016382;28;19916;-75
2023/01/02 11:47:11;;;;;;;;;;;;;;;12.36;71.16;101577.34;5015901;28;19924;-76
2023/01/02 11:49:39;;;;;;;;;;;;;;;12.36;70.99;101582.75;5015370;28;19913;-76
2023/01/02 11:52:05;;;;;;;;;;;;;;;12.35;71.20;101571.09;5015628;28;20003;-76
2023/01/02 11:54:37;;;;;;;;;;;;;;;12.35;71.20;101587.34;5014219;28;19952;-75
2023/01/02 11:57:03;;;;;;;;;;;;;;;12.34;71.26;101591.94;5016037;28;19913;-77
2023/01/02 11:59:35;;;;;;;;;;;;;;;12.36;71.32;101594.41;5014518;28;20015;-77
2023/01/02 12:02:21;;;;;;;;;;;;;;;12.34;71.24;101591.94;5015542;28;19917;-76
2023/01/02 12:04:46;;;;;;;;;;;;;;;12.36;71.09;101594.41;5007731;28;19918;-77
2023/01/02 12:07:17;;;;;;;;;;;;;;;12.36;71.42;101599.00;5015303;28;19920;-75
2023/01/02 12:09:42;;;;;;;;;;;;;;;12.33;71.25;101598.41;5015197;28;19967;-77
2023/01/02 12:12:20;;;;;;;;;;;;;;;12.34;71.43;101594.63;5015226;28;19913;-77
2023/01/02 12:14:45;;;;;;;;;;;;;;;12.35;71.49;101600.91;5016016;28;19975;-76
2023/01/02 12:17:13;;;;;;;;;;;;;;;12.35;71.31;101592.78;5015324;28;19913;-76
2023/01/02 12:19:47;;;;;;;;;;;;;;;12.35;71.53;101598.19;5015299;28;19914;-77
2023/01/02 12:22:25;;;;;;;;;;;;;;;12.34;71.28;101600.06;5013605;28;19967;-76
2023/01/02 12:25:12;;;;;;;;;;;;;;;12.35;71.40;101600.91;5015490;28;20051;-76
2023/01/02 12:27:45;;;;;;;;;;;;;;;12.34;71.43;101610.91;5015477;28;19993;-81
2023/01/02 12:30:12;;;;;;;;;;;;;;;12.35;71.35;101606.31;5014972;28;20405;-76
2023/01/02 12:32:56;;;;;;;;;;;;;;;12.34;71.26;101616.31;5014316;28;19966;-75
2023/01/02 12:35:46;;;;;;;;;;;;;;;12.34;71.38;101620.91;5015012;28;19913;-75
2023/01/02 12:38:19;;;;;;;;;;;;;;;12.33;71.46;101630.94;5014881;28;19914;-75
2023/01/02 12:40:47;;;;;;;;;;;;;;;12.34;71.36;101631.75;5014627;28;19964;-76
2023/01/02 12:43:18;;;;;;;;;;;;;;;12.33;71.42;101627.41;5014680;28;19959;-75
2023/01/02 12:45:54;;;;;;;;;;;;;;;12.33;71.19;101633.63;5013496;28;19921;-76
2023/01/02 12:48:22;;;;;;;;;;;;;;;12.33;71.27;101644.47;5014518;28;19940;-76